createdAt,value
2023-04-26T00:01:36.250Z,14.80
2023-04-26T00:04:10.831Z,14.81
2023-04-26T00:06:44.626Z,14.83
2023-04-26T00:09:19.106Z,14.83
2023-04-26T00:11:54.345Z,14.84
2023-04-26T00:14:28.199Z,14.83
2023-04-26T00:17:04.112Z,14.81
2023-04-26T00:19:40.143Z,14.76
2023-04-26T00:22:13.676Z,14.72
2023-04-26T00:24:47.383Z,14.69
2023-04-26T00:27:22.617Z,14.66
2023-04-26T00:29:56.919Z,14.62
2023-04-26T00:32:30.538Z,14.58
2023-04-26T00:35:09.655Z,14.54
2023-04-26T00:37:45.448Z,14.50
2023-04-26T00:40:21.043Z,14.44
2023-04-26T00:43:01.054Z,14.40
2023-04-26T00:45:34.508Z,14.35
2023-04-26T00:48:08.160Z,14.30
2023-04-26T00:50:41.781Z,14.24
2023-04-26T00:53:16.266Z,14.18
2023-04-26T00:55:51.956Z,14.12
2023-04-26T00:58:25.531Z,14.06
2023-04-26T01:00:59.227Z,14.01
2023-04-26T01:03:33.107Z,13.97
2023-04-26T01:06:09.456Z,13.92
2023-04-26T01:08:43.295Z,13.88
2023-04-26T01:11:17.163Z,13.84
2023-04-26T01:13:51.443Z,13.79
2023-04-26T01:16:26.028Z,13.75
2023-04-26T01:18:59.981Z,13.72
2023-04-26T01:21:33.861Z,13.68
2023-04-26T01:24:08.957Z,13.66
2023-04-26T01:26:46.084Z,13.63
2023-04-26T01:29:19.189Z,13.60
2023-04-26T01:31:52.918Z,13.54
2023-04-26T01:34:26.800Z,13.51
2023-04-26T01:37:02.487Z,13.47
2023-04-26T01:39:38.149Z,13.43
2023-04-26T01:42:11.644Z,13.39
2023-04-26T01:44:45.218Z,13.36
2023-04-26T01:47:18.915Z,13.31
2023-04-26T01:49:53.228Z,13.27
2023-04-26T01:52:26.868Z,13.24
2023-04-26T01:55:00.755Z,13.22
2023-04-26T01:57:34.306Z,13.18
2023-04-26T02:00:10.160Z,13.14
2023-04-26T02:02:43.780Z,13.12
2023-04-26T02:05:17.647Z,13.10
2023-04-26T02:07:52.168Z,13.09
2023-04-26T02:10:25.957Z,13.07
2023-04-26T02:12:59.510Z,13.08
2023-04-26T02:15:33.347Z,13.09
2023-04-26T02:18:07.362Z,13.12
2023-04-26T02:20:43.542Z,13.19
2023-04-26T02:23:17.252Z,13.27
2023-04-26T02:25:51.459Z,13.34
2023-04-26T02:28:26.384Z,13.44
2023-04-26T02:31:01.552Z,13.53
2023-04-26T02:33:34.868Z,13.62
2023-04-26T02:36:09.788Z,13.72
2023-04-26T02:38:43.734Z,13.83
2023-04-26T02:41:17.059Z,13.96
2023-04-26T02:43:50.574Z,14.10
2023-04-26T02:46:24.670Z,14.24
2023-04-26T02:48:58.326Z,14.38
2023-04-26T02:51:34.016Z,14.56
2023-04-26T02:54:08.795Z,14.76
2023-04-26T02:56:42.371Z,15.23
2023-04-26T02:59:15.837Z,15.63
2023-04-26T03:01:49.287Z,15.93
2023-04-26T03:04:23.075Z,16.31
2023-04-26T03:06:57.034Z,16.94
2023-04-26T03:09:30.718Z,17.58
2023-04-26T03:12:04.553Z,17.92
2023-04-26T03:14:39.034Z,17.87
2023-04-26T03:17:12.473Z,17.70
2023-04-26T03:19:46.066Z,17.51
2023-04-26T03:22:23.128Z,17.34
2023-04-26T03:24:57.596Z,17.16
2023-04-26T03:27:34.015Z,17.02
2023-04-26T03:30:08.821Z,16.90
2023-04-26T03:32:42.400Z,16.79
2023-04-26T03:35:16.825Z,16.70
2023-04-26T03:37:52.432Z,16.66
2023-04-26T03:40:27.083Z,16.63
2023-04-26T03:43:03.702Z,16.62
2023-04-26T03:45:37.779Z,16.65
2023-04-26T03:48:11.347Z,16.68
2023-04-26T03:50:46.470Z,16.73
2023-04-26T03:53:20.719Z,16.76
2023-04-26T03:55:54.313Z,16.83
2023-04-26T03:58:29.614Z,16.86
2023-04-26T04:01:04.397Z,16.91
2023-04-26T04:03:40.670Z,16.98
2023-04-26T04:06:17.745Z,17.03
2023-04-26T04:08:51.673Z,17.05
2023-04-26T04:11:25.693Z,17.04
2023-04-26T04:13:59.461Z,17.03
2023-04-26T04:16:33.192Z,17.04
2023-04-26T04:19:06.764Z,17.04
2023-04-26T04:21:40.856Z,17.04
2023-04-26T04:24:14.325Z,17.02
2023-04-26T04:26:48.179Z,17.00
2023-04-26T04:29:21.913Z,17.02
2023-04-26T04:31:55.634Z,17.08
2023-04-26T04:34:29.814Z,17.22
2023-04-26T04:37:04.691Z,17.47
2023-04-26T04:39:38.718Z,17.73
2023-04-26T04:42:12.795Z,17.99
2023-04-26T04:44:47.264Z,18.29
2023-04-26T04:47:21.107Z,18.60
2023-04-26T04:49:54.901Z,19.06
2023-04-26T04:52:28.562Z,19.50
2023-04-26T04:55:05.678Z,20.25
2023-04-26T04:57:40.698Z,21.62
2023-04-26T05:00:18.898Z,24.38
2023-04-26T05:02:52.350Z,27.28
2023-04-26T05:05:26.231Z,29.80
2023-04-26T05:07:59.843Z,31.80
2023-04-26T05:10:33.482Z,33.70
2023-04-26T05:13:07.872Z,35.42
2023-04-26T05:15:42.224Z,36.93
2023-04-26T05:18:15.835Z,38.25
2023-04-26T05:20:49.465Z,39.52
2023-04-26T05:23:23.609Z,40.51
2023-04-26T05:25:57.141Z,40.20
2023-04-26T05:28:30.749Z,39.90
2023-04-26T05:31:04.944Z,40.63
2023-04-26T05:33:38.989Z,41.69
2023-04-26T05:36:14.020Z,42.70
2023-04-26T05:38:48.036Z,43.55
2023-04-26T05:41:22.145Z,44.33
2023-04-26T05:43:54.200Z,44.98
2023-04-26T05:46:29.389Z,45.45
2023-04-26T05:49:06.191Z,45.97
2023-04-26T05:51:40.015Z,46.48
2023-04-26T05:54:13.619Z,46.97
2023-04-26T05:56:45.386Z,47.33
2023-04-26T05:59:20.038Z,47.75
2023-04-26T06:01:53.929Z,48.27
2023-04-26T06:04:27.946Z,48.80
2023-04-26T06:07:02.585Z,49.25
2023-04-26T06:09:36.787Z,49.46
2023-04-26T06:12:10.540Z,49.47
2023-04-26T06:14:44.339Z,49.74
2023-04-26T06:17:18.176Z,49.80
2023-04-26T06:19:51.795Z,49.77
2023-04-26T06:22:28.679Z,50.05
2023-04-26T06:25:02.542Z,50.39
2023-04-26T06:27:36.263Z,50.37
2023-04-26T06:30:12.919Z,50.28
2023-04-26T06:32:46.466Z,50.32
2023-04-26T06:35:20.456Z,50.12
2023-04-26T06:37:54.257Z,49.97
2023-04-26T06:40:28.034Z,49.96
2023-04-26T06:43:01.623Z,49.99
2023-04-26T06:45:35.422Z,49.81
2023-04-26T06:48:09.879Z,49.49
2023-04-26T06:50:44.959Z,48.87
2023-04-26T06:53:23.172Z,48.48
2023-04-26T06:55:58.513Z,48.15
2023-04-26T06:58:32.382Z,48.35
2023-04-26T07:01:06.830Z,48.50
2023-04-26T07:03:42.933Z,48.27
2023-04-26T07:06:17.550Z,48.11
2023-04-26T07:08:51.731Z,48.21
2023-04-26T07:11:26.390Z,47.65
2023-04-26T07:14:04.646Z,46.41
2023-04-26T07:16:38.527Z,45.30
2023-04-26T07:19:12.693Z,44.51
2023-04-26T07:21:46.273Z,43.74
2023-04-26T07:24:20.198Z,42.97
2023-04-26T07:26:54.599Z,41.64
2023-04-26T07:29:28.545Z,39.90
2023-04-26T07:32:02.365Z,38.22
2023-04-26T07:34:36.046Z,36.73
2023-04-26T07:37:09.801Z,35.07
2023-04-26T07:39:44.080Z,33.62
2023-04-26T07:42:18.982Z,32.67
2023-04-26T07:45:10.179Z,31.82
2023-04-26T07:47:44.381Z,31.12
2023-04-26T07:50:18.303Z,30.26
2023-04-26T07:52:51.799Z,29.63
2023-04-26T07:55:25.765Z,29.16
2023-04-26T07:57:59.605Z,28.90
2023-04-26T08:00:33.214Z,28.73
2023-04-26T08:03:10.018Z,28.47
2023-04-26T08:05:44.279Z,28.16
2023-04-26T08:08:18.961Z,28.04
2023-04-26T08:10:53.753Z,27.82
2023-04-26T08:13:29.598Z,27.33
2023-04-26T08:16:04.007Z,27.01
2023-04-26T08:18:39.741Z,26.72
2023-04-26T08:21:13.300Z,26.41
2023-04-26T08:23:47.491Z,26.08
2023-04-26T08:26:21.271Z,25.78
2023-04-26T08:29:00.420Z,25.59
2023-04-26T08:31:34.427Z,25.42
2023-04-26T08:34:09.545Z,25.19
2023-04-26T08:36:45.087Z,25.12
2023-04-26T08:39:19.335Z,25.14
2023-04-26T08:41:56.675Z,25.11
2023-04-26T08:44:30.151Z,25.09
2023-04-26T08:47:08.814Z,25.07
2023-04-26T08:49:48.088Z,25.11
2023-04-26T08:52:25.047Z,25.20
2023-04-26T08:55:00.629Z,25.28
2023-04-26T08:57:35.430Z,25.29
2023-04-26T09:00:12.882Z,25.05
2023-04-26T09:02:51.497Z,24.93
2023-04-26T09:05:27.151Z,24.92
2023-04-26T09:08:04.090Z,24.97
2023-04-26T09:10:38.524Z,24.77
2023-04-26T09:13:14.467Z,24.79
2023-04-26T09:15:52.110Z,24.88
2023-04-26T09:18:27.006Z,24.90
2023-04-26T09:21:11.165Z,24.86
2023-04-26T09:24:01.522Z,24.97
2023-04-26T09:26:35.208Z,24.99
2023-04-26T09:29:20.991Z,24.94
2023-04-26T09:31:56.090Z,24.78
2023-04-26T09:34:30.046Z,24.79
2023-04-26T09:37:03.682Z,24.78
2023-04-26T09:39:38.670Z,24.68
2023-04-26T09:42:13.212Z,24.68
2023-04-26T09:44:48.152Z,24.65
2023-04-26T09:47:23.264Z,24.57
2023-04-26T09:49:58.451Z,24.48
2023-04-26T09:52:34.445Z,24.45
2023-04-26T09:55:16.435Z,24.51
2023-04-26T09:58:02.052Z,24.54
2023-04-26T10:00:35.798Z,24.65
2023-04-26T10:03:12.205Z,24.70
2023-04-26T10:05:47.662Z,24.69
2023-04-26T10:08:28.416Z,24.73
2023-04-26T10:11:02.695Z,24.68
2023-04-26T10:13:37.519Z,24.59
2023-04-26T10:16:14.446Z,24.54
2023-04-26T10:18:49.760Z,24.63
2023-04-26T10:21:37.499Z,24.75
2023-04-26T10:24:12.490Z,24.84
2023-04-26T10:26:55.198Z,24.98
2023-04-26T10:29:52.124Z,25.10
2023-04-26T10:32:35.632Z,25.18
2023-04-26T10:35:18.296Z,25.31
2023-04-26T10:38:16.396Z,25.37
2023-04-26T10:40:55.113Z,25.43
2023-04-26T10:43:39.124Z,25.52
2023-04-26T10:46:43.699Z,25.70
2023-04-26T10:49:26.659Z,25.75
2023-04-26T10:52:17.290Z,25.77
2023-04-26T10:54:55.595Z,25.69
2023-04-26T10:57:57.893Z,25.54
2023-04-26T11:00:35.487Z,25.39
2023-04-26T11:03:10.879Z,25.30
2023-04-26T11:05:56.751Z,25.36
2023-04-26T11:08:32.329Z,25.42
2023-04-26T11:11:15.801Z,25.46
2023-04-26T11:13:50.087Z,25.43
2023-04-26T11:16:27.220Z,25.42
2023-04-26T11:19:00.885Z,25.46
2023-04-26T11:21:34.993Z,25.47
2023-04-26T11:24:10.051Z,25.45
2023-04-26T11:26:45.644Z,25.37
2023-04-26T11:29:23.891Z,25.30
2023-04-26T11:31:59.218Z,25.13
2023-04-26T11:34:39.920Z,24.94
2023-04-26T11:37:14.821Z,24.80
2023-04-26T11:39:49.115Z,24.75
2023-04-26T11:42:29.776Z,24.81
2023-04-26T11:45:07.391Z,24.85
2023-04-26T11:47:43.638Z,24.90
2023-04-26T11:50:15.543Z,24.96
2023-04-26T11:52:49.090Z,24.89
2023-04-26T11:55:24.962Z,24.79
2023-04-26T12:01:03.852Z,24.91
2023-04-26T12:03:39.236Z,25.08
2023-04-26T12:06:13.280Z,25.22
2023-04-26T12:08:53.990Z,25.36
2023-04-26T12:11:27.800Z,25.51
2023-04-26T12:14:03.417Z,25.61
2023-04-26T12:16:39.613Z,25.49
2023-04-26T12:19:24.853Z,25.22
2023-04-26T12:21:58.854Z,24.99
2023-04-26T12:24:34.990Z,24.83
2023-04-26T12:27:10.564Z,24.68
2023-04-26T12:29:45.782Z,24.61
2023-04-26T12:32:30.398Z,24.60
2023-04-26T12:35:08.351Z,24.63
2023-04-26T12:37:42.164Z,24.68
2023-04-26T12:40:17.118Z,24.68
2023-04-26T12:42:53.642Z,24.65
2023-04-26T12:45:29.304Z,24.69
2023-04-26T12:48:03.158Z,24.77
2023-04-26T12:50:38.283Z,24.96
2023-04-26T12:53:12.956Z,25.09
2023-04-26T12:55:46.452Z,25.16
2023-04-26T12:58:22.850Z,25.25
2023-04-26T13:00:56.661Z,25.30
2023-04-26T13:03:30.414Z,25.34
2023-04-26T13:06:07.525Z,25.40
2023-04-26T13:08:41.977Z,25.40
2023-04-26T13:11:16.751Z,25.36
2023-04-26T13:13:51.992Z,25.32
2023-04-26T13:16:25.979Z,25.32
2023-04-26T13:18:59.992Z,25.31
2023-04-26T13:21:35.620Z,25.29
2023-04-26T13:24:10.458Z,25.19
2023-04-26T13:26:44.183Z,25.12
2023-04-26T13:29:21.954Z,24.92
2023-04-26T13:31:57.453Z,24.65
2023-04-26T13:34:31.802Z,24.34
2023-04-26T13:37:05.857Z,24.07
2023-04-26T13:39:40.296Z,23.89
2023-04-26T13:42:15.546Z,23.75
2023-04-26T13:44:52.556Z,23.62
2023-04-26T13:47:29.216Z,23.47
2023-04-26T13:50:03.559Z,23.36
2023-04-26T13:52:37.547Z,23.24
2023-04-26T13:55:16.712Z,23.15
2023-04-26T13:57:50.948Z,23.10
2023-04-26T14:00:25.930Z,23.08
2023-04-26T14:02:59.685Z,23.07
2023-04-26T14:05:33.792Z,23.08
2023-04-26T14:08:08.722Z,23.08
2023-04-26T14:10:44.310Z,23.06
2023-04-26T14:13:20.637Z,23.04
2023-04-26T14:15:58.242Z,23.01
2023-04-26T14:18:32.089Z,23.02
2023-04-26T14:21:06.146Z,23.07
2023-04-26T14:23:40.080Z,23.14
2023-04-26T14:26:15.162Z,23.22
2023-04-26T14:28:49.317Z,23.40
2023-04-26T14:31:26.600Z,23.48
2023-04-26T14:34:00.860Z,23.46
2023-04-26T14:36:40.346Z,23.38
2023-04-26T14:39:18.675Z,23.34
2023-04-26T14:41:52.305Z,23.27
2023-04-26T14:44:27.577Z,23.18
2023-04-26T14:47:02.183Z,23.09
2023-04-26T14:49:36.292Z,23.06
2023-04-26T14:52:11.922Z,22.98
2023-04-26T14:54:54.520Z,22.88
2023-04-26T14:57:30.249Z,22.78
2023-04-26T15:00:10.624Z,22.71
2023-04-26T15:02:50.963Z,22.59
2023-04-26T15:05:27.552Z,22.51
2023-04-26T15:08:04.582Z,22.46
2023-04-26T15:10:38.443Z,22.41
2023-04-26T15:13:15.345Z,22.36
2023-04-26T15:15:51.926Z,22.30
2023-04-26T15:18:33.771Z,22.25
2023-04-26T15:21:11.952Z,22.17
2023-04-26T15:23:45.575Z,22.11
2023-04-26T15:26:19.813Z,22.05
2023-04-26T15:28:54.937Z,21.96
2023-04-26T15:31:39.377Z,21.85
2023-04-26T15:34:15.336Z,21.76
2023-04-26T15:36:49.405Z,21.65
2023-04-26T15:39:29.033Z,21.54
2023-04-26T15:42:02.976Z,21.45
2023-04-26T15:44:44.888Z,21.37
2023-04-26T15:47:22.684Z,21.32
2023-04-26T15:49:58.891Z,21.24
2023-04-26T15:52:32.953Z,21.17
2023-04-26T15:55:08.050Z,21.09
2023-04-26T15:57:45.550Z,21.01
2023-04-26T16:00:23.498Z,20.91
2023-04-26T16:03:00.975Z,20.83
2023-04-26T16:05:38.008Z,20.76
2023-04-26T16:08:24.384Z,20.68
2023-04-26T16:11:10.010Z,20.63
2023-04-26T16:13:44.944Z,20.58
2023-04-26T16:16:20.294Z,20.53
2023-04-26T16:19:00.677Z,20.49
2023-04-26T16:21:36.523Z,20.44
2023-04-26T16:24:12.102Z,20.40
2023-04-26T16:26:48.780Z,20.36
2023-04-26T16:29:25.913Z,20.30
2023-04-26T16:31:59.834Z,20.24
2023-04-26T16:34:35.202Z,20.19
2023-04-26T16:37:09.652Z,20.13
2023-04-26T16:39:43.593Z,20.09
2023-04-26T16:42:17.127Z,20.06
2023-04-26T16:44:56.118Z,20.04
2023-04-26T16:47:30.982Z,20.03
2023-04-26T16:50:09.052Z,20.01
2023-04-26T16:52:45.256Z,19.98
2023-04-26T16:55:20.585Z,19.96
2023-04-26T16:57:54.180Z,19.93
2023-04-26T17:00:32.602Z,19.90
2023-04-26T17:03:27.361Z,19.87
2023-04-26T17:06:02.052Z,19.83
2023-04-26T17:08:42.766Z,19.81
2023-04-26T17:11:24.567Z,19.78
2023-04-26T17:14:02.055Z,19.76
2023-04-26T17:16:37.027Z,19.75
2023-04-26T17:19:15.813Z,19.75
2023-04-26T17:21:50.170Z,19.73
2023-04-26T17:24:26.185Z,19.71
2023-04-26T17:26:59.958Z,19.70
2023-04-26T17:29:35.381Z,19.67
2023-04-26T17:32:20.515Z,19.62
2023-04-26T17:34:56.269Z,19.58
2023-04-26T17:37:30.972Z,19.58
2023-04-26T17:40:08.430Z,19.58
2023-04-26T17:42:42.500Z,19.58
2023-04-26T17:45:28.938Z,19.59
2023-04-26T17:48:03.035Z,19.59
2023-04-26T17:50:38.016Z,19.59
2023-04-26T17:53:13.222Z,19.59
2023-04-26T17:56:00.761Z,19.60
2023-04-26T17:58:39.138Z,19.57
2023-04-26T18:01:13.129Z,19.48
2023-04-26T18:03:49.549Z,19.41
2023-04-26T18:06:23.411Z,19.30
2023-04-26T18:08:56.927Z,19.22
2023-04-26T18:11:32.343Z,19.12
2023-04-26T18:14:06.774Z,19.01
2023-04-26T18:16:47.565Z,18.91
2023-04-26T18:19:24.593Z,18.80
2023-04-26T18:21:58.585Z,18.73
2023-04-26T18:24:36.161Z,18.70
2023-04-26T18:27:14.883Z,18.69
2023-04-26T18:29:54.206Z,18.68
2023-04-26T18:32:39.179Z,18.62
2023-04-26T18:35:23.478Z,18.54
2023-04-26T18:38:03.954Z,18.49
2023-04-26T18:40:45.875Z,18.45
2023-04-26T18:43:22.486Z,18.41
2023-04-26T18:46:01.226Z,18.37
2023-04-26T18:48:48.613Z,18.32
2023-04-26T18:51:41.651Z,18.25
2023-04-26T18:54:26.795Z,18.19
2023-04-26T18:57:03.356Z,18.12
2023-04-26T18:59:37.997Z,18.06
2023-04-26T19:02:13.734Z,18.00
2023-04-26T19:05:03.025Z,17.95
2023-04-26T19:07:46.448Z,17.89
2023-04-26T19:10:31.020Z,17.84
2023-04-26T19:13:10.707Z,17.78
2023-04-26T19:15:54.411Z,17.71
2023-04-26T19:18:28.312Z,17.65
2023-04-26T19:21:15.324Z,17.58
2023-04-26T19:23:55.950Z,17.54
2023-04-26T19:26:37.062Z,17.49
2023-04-26T19:29:13.678Z,17.46
2023-04-26T19:32:12.897Z,17.43
2023-04-26T19:34:48.330Z,17.39
2023-04-26T19:37:25.087Z,17.35
2023-04-26T19:40:02.956Z,17.32
2023-04-26T19:42:39.826Z,17.24
2023-04-26T19:45:26.604Z,17.18
2023-04-26T19:48:06.435Z,17.14
2023-04-26T19:50:46.381Z,17.09
2023-04-26T19:53:27.914Z,17.05
2023-04-26T19:56:04.188Z,17.02
2023-04-26T19:58:42.336Z,16.99
2023-04-26T20:01:20.555Z,16.96
2023-04-26T20:03:57.898Z,16.93
2023-04-26T20:06:42.887Z,16.90
2023-04-26T20:09:20.789Z,16.86
2023-04-26T20:11:58.846Z,16.86
2023-04-26T20:14:34.281Z,16.85
2023-04-26T20:17:17.276Z,16.84
2023-04-26T20:19:51.366Z,16.84
2023-04-26T20:22:30.824Z,16.83
2023-04-26T20:25:21.494Z,16.83
2023-04-26T20:27:57.164Z,16.81
2023-04-26T20:30:43.221Z,16.77
2023-04-26T20:33:28.601Z,16.75
2023-04-26T20:36:08.352Z,16.71
2023-04-26T20:38:59.420Z,16.66
2023-04-26T20:41:36.366Z,16.60
2023-04-26T20:44:13.532Z,16.57
2023-04-26T20:46:48.870Z,16.57
2023-04-26T20:49:23.145Z,16.60
2023-04-26T20:51:58.238Z,16.64
2023-04-26T20:54:36.862Z,16.68
2023-04-26T20:57:10.511Z,16.72
2023-04-26T20:59:47.578Z,16.76
2023-04-26T21:02:24.165Z,16.82
2023-04-26T21:05:13.656Z,16.87
2023-04-26T21:07:53.447Z,16.89
2023-04-26T21:10:30.516Z,16.89
2023-04-26T21:13:08.544Z,16.86
2023-04-26T21:15:44.086Z,16.82
2023-04-26T21:18:20.689Z,16.77
2023-04-26T21:20:54.912Z,16.72
2023-04-26T21:23:36.364Z,16.66
2023-04-26T21:26:14.414Z,16.59
2023-04-26T21:28:52.802Z,16.53
2023-04-26T21:31:32.661Z,16.46
2023-04-26T21:34:14.478Z,16.42
2023-04-26T21:36:57.797Z,16.39
2023-04-26T21:39:34.872Z,16.36
2023-04-26T21:42:09.017Z,16.36
2023-04-26T21:44:42.959Z,16.35
2023-04-26T21:47:17.056Z,16.37
2023-04-26T21:49:56.375Z,16.38
2023-04-26T21:52:30.290Z,16.40
2023-04-26T21:55:04.487Z,16.42
2023-04-26T21:57:38.041Z,16.45
2023-04-26T22:00:18.603Z,16.47
2023-04-26T22:02:53.037Z,16.47
2023-04-26T22:05:27.736Z,16.45
2023-04-26T22:08:04.138Z,16.43
2023-04-26T22:10:38.361Z,16.42
2023-04-26T22:13:12.165Z,16.41
2023-04-26T22:15:47.548Z,16.41
2023-04-26T22:18:26.370Z,16.39
2023-04-26T22:21:01.484Z,16.41
2023-04-26T22:23:36.386Z,16.43
2023-04-26T22:26:10.642Z,16.45
2023-04-26T22:28:45.131Z,16.47
2023-04-26T22:31:18.784Z,16.50
2023-04-26T22:33:53.433Z,16.54
2023-04-26T22:36:29.149Z,16.55
2023-04-26T22:39:03.473Z,16.55
2023-04-26T22:41:39.840Z,16.56
2023-04-26T22:44:15.197Z,16.54
2023-04-26T22:46:48.963Z,16.53
2023-04-26T22:49:23.677Z,16.53
2023-04-26T22:52:07.809Z,16.53
2023-04-26T22:54:43.744Z,16.52
2023-04-26T22:57:17.600Z,16.49
2023-04-26T22:59:51.312Z,16.49
2023-04-26T23:02:24.986Z,16.49
2023-04-26T23:04:58.946Z,16.49
2023-04-26T23:07:33.793Z,16.52
2023-04-26T23:10:09.267Z,16.55
2023-04-26T23:12:45.395Z,16.60
2023-04-26T23:15:19.716Z,16.67
2023-04-26T23:17:54.285Z,16.71
2023-04-26T23:20:28.649Z,16.77
2023-04-26T23:23:02.126Z,16.81
2023-04-26T23:25:36.200Z,16.84
2023-04-26T23:28:10.460Z,16.86
2023-04-26T23:30:45.006Z,16.86
2023-04-26T23:33:18.570Z,16.85
2023-04-26T23:35:56.114Z,16.86
2023-04-26T23:38:31.247Z,16.86
2023-04-26T23:41:04.897Z,16.86
2023-04-26T23:43:41.338Z,16.88
2023-04-26T23:46:14.915Z,16.90
2023-04-26T23:48:49.152Z,16.92
2023-04-26T23:51:24.122Z,16.95
2023-04-26T23:53:57.667Z,16.98
2023-04-26T23:56:31.922Z,17.00
2023-04-26T23:59:05.548Z,17.00
